createdAt,value
2023-04-26T00:00:08.591Z,88124.00
2023-04-26T00:01:08.608Z,88124.00
2023-04-26T00:02:08.620Z,88126.00
2023-04-26T00:03:08.731Z,88126.00
2023-04-26T00:04:08.931Z,88126.00
2023-04-26T00:05:08.847Z,88124.00
2023-04-26T00:06:08.726Z,88124.00
2023-04-26T00:07:08.721Z,88124.00
2023-04-26T00:08:08.736Z,88124.00
2023-04-26T00:09:08.759Z,88124.00
2023-04-26T00:10:08.795Z,88126.00
2023-04-26T00:11:08.799Z,88126.00
2023-04-26T00:12:08.810Z,88122.00
2023-04-26T00:13:08.838Z,88122.00
2023-04-26T00:14:08.861Z,88122.00
2023-04-26T00:15:08.872Z,88124.00
2023-04-26T00:16:09.029Z,88126.00
2023-04-26T00:17:08.916Z,88122.00
2023-04-26T00:18:08.965Z,88122.00
2023-04-26T00:19:08.945Z,88124.00
2023-04-26T00:20:08.967Z,88128.00
2023-04-26T00:21:08.960Z,88126.00
2023-04-26T00:22:08.962Z,88126.00
2023-04-26T00:23:08.957Z,88124.00
2023-04-26T00:24:08.966Z,88124.00
2023-04-26T00:25:08.986Z,88124.00
2023-04-26T00:26:08.998Z,88120.00
2023-04-26T00:27:08.986Z,88122.00
2023-04-26T00:28:08.998Z,88120.00
2023-04-26T00:29:08.998Z,88120.00
2023-04-26T00:30:09.012Z,88120.00
2023-04-26T00:31:09.020Z,88120.00
2023-04-26T00:32:09.118Z,88120.00
2023-04-26T00:33:09.065Z,88122.00
2023-04-26T00:34:09.017Z,88120.00
2023-04-26T00:35:09.015Z,88118.00
2023-04-26T00:36:09.038Z,88114.00
2023-04-26T00:37:09.034Z,88118.00
2023-04-26T00:38:09.051Z,88114.00
2023-04-26T00:39:09.045Z,88114.00
2023-04-26T00:40:09.049Z,88118.00
2023-04-26T00:41:09.049Z,88118.00
2023-04-26T00:42:09.057Z,88120.00
2023-04-26T00:43:09.056Z,88122.00
2023-04-26T00:44:09.088Z,88124.00
2023-04-26T00:45:09.081Z,88126.00
2023-04-26T00:46:09.126Z,88126.00
2023-04-26T00:47:09.095Z,88124.00
2023-04-26T00:48:09.134Z,88124.00
2023-04-26T00:49:09.119Z,88126.00
2023-04-26T00:50:09.140Z,88124.00
2023-04-26T00:51:09.178Z,88126.00
2023-04-26T00:52:09.190Z,88122.00
2023-04-26T00:53:09.213Z,88124.00
2023-04-26T00:54:09.245Z,88124.00
2023-04-26T00:55:09.265Z,88120.00
2023-04-26T00:56:09.337Z,88120.00
2023-04-26T00:57:09.314Z,88120.00
2023-04-26T00:58:09.337Z,88120.00
2023-04-26T00:59:09.352Z,88118.00
2023-04-26T01:00:09.365Z,88118.00
2023-04-26T01:01:09.431Z,88122.00
2023-04-26T01:02:09.454Z,88124.00
2023-04-26T01:03:09.510Z,88126.00
2023-04-26T01:04:09.608Z,88128.00
2023-04-26T01:05:09.452Z,88130.00
2023-04-26T01:06:09.488Z,88128.00
2023-04-26T01:07:09.500Z,88132.00
2023-04-26T01:08:09.538Z,88132.00
2023-04-26T01:09:09.561Z,88132.00
2023-04-26T01:10:09.578Z,88132.00
2023-04-26T01:11:09.611Z,88130.00
2023-04-26T01:12:09.633Z,88130.00
2023-04-26T01:13:09.656Z,88128.00
2023-04-26T01:14:09.685Z,88126.00
2023-04-26T01:15:09.701Z,88124.00
2023-04-26T01:16:09.733Z,88122.00
2023-04-26T01:17:09.776Z,88120.00
2023-04-26T01:18:09.770Z,88120.00
2023-04-26T01:19:09.796Z,88122.00
2023-04-26T01:20:09.846Z,88120.00
2023-04-26T01:21:09.840Z,88120.00
2023-04-26T01:22:09.871Z,88118.00
2023-04-26T01:23:09.890Z,88120.00
2023-04-26T01:24:09.926Z,88120.00
2023-04-26T01:25:09.940Z,88120.00
2023-04-26T01:26:09.983Z,88120.00
2023-04-26T01:27:09.986Z,88120.00
2023-04-26T01:28:10.018Z,88122.00
2023-04-26T01:29:10.037Z,88120.00
2023-04-26T01:30:10.065Z,88118.00
2023-04-26T01:31:10.106Z,88120.00
2023-04-26T01:32:10.101Z,88122.00
2023-04-26T01:33:10.162Z,88120.00
2023-04-26T01:34:10.146Z,88122.00
2023-04-26T01:35:10.170Z,88122.00
2023-04-26T01:36:10.199Z,88120.00
2023-04-26T01:37:10.219Z,88118.00
2023-04-26T01:38:10.253Z,88116.00
2023-04-26T01:39:10.286Z,88112.00
2023-04-26T01:40:10.308Z,88114.00
2023-04-26T01:41:10.323Z,88114.00
2023-04-26T01:42:10.377Z,88114.00
2023-04-26T01:43:10.382Z,88114.00
2023-04-26T01:44:10.409Z,88114.00
2023-04-26T01:45:10.434Z,88114.00
2023-04-26T01:46:10.471Z,88112.00
2023-04-26T01:47:10.500Z,88114.00
2023-04-26T01:48:10.507Z,88116.00
2023-04-26T01:49:10.531Z,88114.00
2023-04-26T01:50:10.568Z,88112.00
2023-04-26T01:51:10.580Z,88114.00
2023-04-26T01:52:10.605Z,88114.00
2023-04-26T01:53:10.634Z,88112.00
2023-04-26T01:54:10.654Z,88112.00
2023-04-26T01:55:10.681Z,88114.00
2023-04-26T01:56:10.731Z,88114.00
2023-04-26T01:57:10.725Z,88112.00
2023-04-26T01:58:10.745Z,88114.00
2023-04-26T01:59:10.786Z,88112.00
2023-04-26T02:00:10.800Z,88112.00
2023-04-26T02:01:10.895Z,88112.00
2023-04-26T02:02:10.921Z,88114.00
2023-04-26T02:03:11.036Z,88112.00
2023-04-26T02:04:10.923Z,88114.00
2023-04-26T02:05:11.025Z,88112.00
2023-04-26T02:06:10.975Z,88118.00
2023-04-26T02:07:11.011Z,88118.00
2023-04-26T02:08:11.041Z,88118.00
2023-04-26T02:09:11.078Z,88122.00
2023-04-26T02:10:11.107Z,88124.00
2023-04-26T02:11:11.121Z,88124.00
2023-04-26T02:12:11.153Z,88128.00
2023-04-26T02:13:11.185Z,88128.00
2023-04-26T02:14:11.218Z,88126.00
2023-04-26T02:15:11.248Z,88126.00
2023-04-26T02:16:11.321Z,88128.00
2023-04-26T02:17:11.304Z,88130.00
2023-04-26T02:18:11.353Z,88126.00
2023-04-26T02:19:11.372Z,88124.00
2023-04-26T02:20:11.398Z,88124.00
2023-04-26T02:21:11.438Z,88124.00
2023-04-26T02:22:11.461Z,88122.00
2023-04-26T02:23:11.512Z,88124.00
2023-04-26T02:24:11.545Z,88124.00
2023-04-26T02:25:11.580Z,88126.00
2023-04-26T02:26:11.672Z,88124.00
2023-04-26T02:27:11.648Z,88122.00
2023-04-26T02:28:11.685Z,88122.00
2023-04-26T02:29:11.720Z,88124.00
2023-04-26T02:30:11.756Z,88126.00
2023-04-26T02:31:11.854Z,88122.00
2023-04-26T02:32:11.842Z,88120.00
2023-04-26T02:33:11.865Z,88120.00
2023-04-26T02:34:11.903Z,88118.00
2023-04-26T02:35:11.920Z,88120.00
2023-04-26T02:36:11.958Z,88120.00
2023-04-26T02:37:11.992Z,88120.00
2023-04-26T02:38:12.022Z,88120.00
2023-04-26T02:39:12.104Z,88118.00
2023-04-26T02:40:12.086Z,88120.00
2023-04-26T02:41:12.130Z,88120.00
2023-04-26T02:42:12.147Z,88124.00
2023-04-26T02:43:12.181Z,88120.00
2023-04-26T02:44:12.223Z,88118.00
2023-04-26T02:45:12.237Z,88122.00
2023-04-26T02:46:12.320Z,88118.00
2023-04-26T02:47:12.297Z,88118.00
2023-04-26T02:48:12.327Z,88122.00
2023-04-26T02:49:12.370Z,88122.00
2023-04-26T02:50:12.405Z,88120.00
2023-04-26T02:51:12.422Z,88122.00
2023-04-26T02:52:12.469Z,88128.00
2023-04-26T02:53:12.497Z,88124.00
2023-04-26T02:54:12.518Z,88124.00
2023-04-26T02:55:12.584Z,88124.00
2023-04-26T02:56:12.601Z,88120.00
2023-04-26T02:57:12.633Z,88118.00
2023-04-26T02:58:12.644Z,88118.00
2023-04-26T02:59:12.667Z,88120.00
2023-04-26T03:00:12.693Z,88116.00
2023-04-26T03:01:12.824Z,88112.00
2023-04-26T03:02:12.870Z,88112.00
2023-04-26T03:03:12.998Z,88114.00
2023-04-26T03:04:12.923Z,88112.00
2023-04-26T03:05:12.869Z,88112.00
2023-04-26T03:06:12.914Z,88112.00
2023-04-26T03:07:12.968Z,88114.00
2023-04-26T03:08:13.036Z,88116.00
2023-04-26T03:09:13.133Z,88116.00
2023-04-26T03:10:13.212Z,88114.00
2023-04-26T03:11:13.306Z,88116.00
2023-04-26T03:12:13.342Z,88116.00
2023-04-26T03:13:13.354Z,88114.00
2023-04-26T03:14:13.400Z,88112.00
2023-04-26T03:15:13.417Z,88110.00
2023-04-26T03:16:13.480Z,88104.00
2023-04-26T03:17:13.451Z,88108.00
2023-04-26T03:18:13.473Z,88106.00
2023-04-26T03:19:13.519Z,88106.00
2023-04-26T03:20:13.521Z,88106.00
2023-04-26T03:21:13.555Z,88102.00
2023-04-26T03:22:13.591Z,88104.00
2023-04-26T03:23:13.624Z,88102.00
2023-04-26T03:24:13.704Z,88106.00
2023-04-26T03:25:13.708Z,88106.00
2023-04-26T03:26:13.763Z,88106.00
2023-04-26T03:27:13.790Z,88104.00
2023-04-26T03:28:13.836Z,88108.00
2023-04-26T03:29:13.923Z,88104.00
2023-04-26T03:30:13.946Z,88108.00
2023-04-26T03:31:14.033Z,88106.00
2023-04-26T03:32:14.205Z,88106.00
2023-04-26T03:33:14.258Z,88108.00
2023-04-26T03:34:14.226Z,88108.00
2023-04-26T03:35:14.288Z,88110.00
2023-04-26T03:36:14.336Z,88110.00
2023-04-26T03:37:14.416Z,88110.00
2023-04-26T03:38:14.480Z,88112.00
2023-04-26T03:39:14.559Z,88110.00
2023-04-26T03:40:14.611Z,88114.00
2023-04-26T03:41:14.689Z,88114.00
2023-04-26T03:42:14.758Z,88116.00
2023-04-26T03:43:14.845Z,88118.00
2023-04-26T03:44:14.921Z,88118.00
2023-04-26T03:45:15.021Z,88114.00
2023-04-26T03:46:15.098Z,88112.00
2023-04-26T03:47:15.155Z,88114.00
2023-04-26T03:48:15.245Z,88114.00
2023-04-26T03:49:15.318Z,88110.00
2023-04-26T03:50:15.405Z,88112.00
2023-04-26T03:51:15.467Z,88112.00
2023-04-26T03:52:15.552Z,88116.00
2023-04-26T03:53:15.651Z,88118.00
2023-04-26T03:54:15.740Z,88118.00
2023-04-26T03:55:15.822Z,88120.00
2023-04-26T03:56:15.898Z,88118.00
2023-04-26T03:57:15.976Z,88120.00
2023-04-26T03:58:16.071Z,88122.00
2023-04-26T03:59:16.146Z,88122.00
2023-04-26T04:00:16.234Z,88120.00
2023-04-26T04:01:16.307Z,88118.00
2023-04-26T04:02:16.454Z,88120.00
2023-04-26T04:03:16.699Z,88122.00
2023-04-26T04:04:16.837Z,88120.00
2023-04-26T04:05:16.705Z,88122.00
2023-04-26T04:06:16.528Z,88120.00
2023-04-26T04:07:16.572Z,88124.00
2023-04-26T04:08:16.566Z,88122.00
2023-04-26T04:09:16.623Z,88124.00
2023-04-26T04:10:16.600Z,88124.00
2023-04-26T04:11:16.940Z,88128.00
2023-04-26T04:12:16.640Z,88126.00
2023-04-26T04:13:16.664Z,88130.00
2023-04-26T04:14:16.675Z,88132.00
2023-04-26T04:15:16.705Z,88132.00
2023-04-26T04:16:16.771Z,88132.00
2023-04-26T04:17:16.785Z,88132.00
2023-04-26T04:18:16.921Z,88134.00
2023-04-26T04:19:16.824Z,88136.00
2023-04-26T04:20:16.841Z,88136.00
2023-04-26T04:21:16.863Z,88136.00
2023-04-26T04:22:16.882Z,88134.00
2023-04-26T04:23:16.904Z,88139.00
2023-04-26T04:24:16.933Z,88141.00
2023-04-26T04:25:16.948Z,88143.00
2023-04-26T04:26:16.961Z,88141.00
2023-04-26T04:27:16.972Z,88141.00
2023-04-26T04:28:17.038Z,88139.00
2023-04-26T04:29:17.099Z,88141.00
2023-04-26T04:30:17.193Z,88141.00
2023-04-26T04:31:17.301Z,88145.00
2023-04-26T04:32:17.368Z,88145.00
2023-04-26T04:33:17.450Z,88145.00
2023-04-26T04:34:17.529Z,88145.00
2023-04-26T04:35:17.598Z,88147.00
2023-04-26T04:36:17.653Z,88147.00
2023-04-26T04:37:17.739Z,88149.00
2023-04-26T04:38:17.811Z,88151.00
2023-04-26T04:39:17.902Z,88149.00
2023-04-26T04:40:17.993Z,88153.00
2023-04-26T04:41:18.069Z,88155.00
2023-04-26T04:42:18.095Z,88153.00
2023-04-26T04:43:18.157Z,88155.00
2023-04-26T04:44:18.267Z,88155.00
2023-04-26T04:45:18.327Z,88157.00
2023-04-26T04:46:18.392Z,88153.00
2023-04-26T04:47:18.454Z,88155.00
2023-04-26T04:48:18.582Z,88155.00
2023-04-26T04:49:18.602Z,88157.00
2023-04-26T04:50:18.668Z,88155.00
2023-04-26T04:51:18.758Z,88155.00
2023-04-26T04:52:19.194Z,88155.00
2023-04-26T04:53:18.904Z,88151.00
2023-04-26T04:54:18.998Z,88153.00
2023-04-26T04:55:19.071Z,88151.00
2023-04-26T04:56:19.128Z,88155.00
2023-04-26T04:57:19.159Z,88157.00
2023-04-26T04:58:19.172Z,88159.00
2023-04-26T04:59:19.237Z,88161.00
2023-04-26T05:00:19.325Z,88163.00
2023-04-26T05:01:19.405Z,88165.00
2023-04-26T05:02:19.599Z,88165.00
2023-04-26T05:03:19.551Z,88165.00
2023-04-26T05:04:19.592Z,88169.00
2023-04-26T05:05:19.496Z,88169.00
2023-04-26T05:06:19.493Z,88169.00
2023-04-26T05:07:19.508Z,88169.00
2023-04-26T05:08:19.538Z,88173.00
2023-04-26T05:09:19.548Z,88175.00
2023-04-26T05:10:19.564Z,88175.00
2023-04-26T05:11:19.575Z,88177.00
2023-04-26T05:12:19.583Z,88177.00
2023-04-26T05:13:19.612Z,88181.00
2023-04-26T05:14:19.627Z,88179.00
2023-04-26T05:15:19.662Z,88179.00
2023-04-26T05:16:19.676Z,88179.00
2023-04-26T05:17:19.652Z,88177.00
2023-04-26T05:18:19.676Z,88173.00
2023-04-26T05:19:19.693Z,88173.00
2023-04-26T05:20:19.723Z,88175.00
2023-04-26T05:21:19.743Z,88175.00
2023-04-26T05:22:19.749Z,88173.00
2023-04-26T05:23:19.761Z,88177.00
2023-04-26T05:24:19.769Z,88175.00
2023-04-26T05:25:22.149Z,88177.00
2023-04-26T05:26:20.063Z,88177.00
2023-04-26T05:27:20.101Z,88179.00
2023-04-26T05:28:20.135Z,88177.00
2023-04-26T05:29:20.137Z,88177.00
2023-04-26T05:30:20.167Z,88177.00
2023-04-26T05:31:20.219Z,88179.00
2023-04-26T05:32:20.231Z,88177.00
2023-04-26T05:33:20.382Z,88177.00
2023-04-26T05:34:20.289Z,88177.00
2023-04-26T05:35:20.289Z,88177.00
2023-04-26T05:36:20.313Z,88179.00
2023-04-26T05:37:20.326Z,88181.00
2023-04-26T05:38:20.352Z,88183.00
2023-04-26T05:39:20.361Z,88183.00
2023-04-26T05:40:20.374Z,88183.00
2023-04-26T05:41:20.381Z,88184.00
2023-04-26T05:42:20.778Z,88183.00
2023-04-26T05:43:20.520Z,88183.00
2023-04-26T05:44:20.430Z,88181.00
2023-04-26T05:45:20.465Z,88184.00
2023-04-26T05:46:20.598Z,88183.00
2023-04-26T05:47:20.464Z,88184.00
2023-04-26T05:48:20.489Z,88181.00
2023-04-26T05:49:20.493Z,88181.00
2023-04-26T05:50:20.505Z,88181.00
2023-04-26T05:51:20.517Z,88179.00
2023-04-26T05:52:20.542Z,88179.00
2023-04-26T05:53:20.560Z,88179.00
2023-04-26T05:54:20.585Z,88177.00
2023-04-26T05:55:20.596Z,88181.00
2023-04-26T05:56:20.609Z,88179.00
2023-04-26T05:57:20.672Z,88179.00
2023-04-26T05:58:20.660Z,88183.00
2023-04-26T05:59:20.711Z,88181.00
2023-04-26T06:00:20.703Z,88181.00
2023-04-26T06:01:20.732Z,88183.00
2023-04-26T06:02:20.819Z,88179.00
2023-04-26T06:03:20.924Z,88181.00
2023-04-26T06:04:20.997Z,88181.00
2023-04-26T06:05:20.954Z,88183.00
2023-04-26T06:06:20.849Z,88181.00
2023-04-26T06:07:20.873Z,88179.00
2023-04-26T06:08:20.912Z,88181.00
2023-04-26T06:09:20.924Z,88181.00
2023-04-26T06:10:20.965Z,88181.00
2023-04-26T06:11:21.055Z,88181.00
2023-04-26T06:12:21.133Z,88179.00
2023-04-26T06:13:21.237Z,88184.00
2023-04-26T06:14:29.829Z,88183.00
2023-04-26T06:15:22.272Z,88183.00
2023-04-26T06:16:21.366Z,88184.00
2023-04-26T06:17:21.332Z,88188.00
2023-04-26T06:18:21.345Z,88186.00
2023-04-26T06:19:21.348Z,88186.00
2023-04-26T06:20:21.381Z,88184.00
2023-04-26T06:21:21.394Z,88188.00
2023-04-26T06:22:21.425Z,88190.00
2023-04-26T06:23:21.433Z,88184.00
2023-04-26T06:24:21.565Z,88184.00
2023-04-26T06:25:21.485Z,88186.00
2023-04-26T06:26:21.497Z,88186.00
2023-04-26T06:27:21.501Z,88186.00
2023-04-26T06:28:21.535Z,88186.00
2023-04-26T06:29:21.574Z,88186.00
2023-04-26T06:30:21.579Z,88188.00
2023-04-26T06:31:21.613Z,88190.00
2023-04-26T06:32:21.674Z,88192.00
2023-04-26T06:33:21.621Z,88188.00
2023-04-26T06:34:21.656Z,88190.00
2023-04-26T06:35:21.682Z,88192.00
2023-04-26T06:36:21.716Z,88194.00
2023-04-26T06:37:21.735Z,88192.00
2023-04-26T06:38:21.767Z,88196.00
2023-04-26T06:39:21.756Z,88196.00
2023-04-26T06:40:21.901Z,88196.00
2023-04-26T06:41:21.791Z,88194.00
2023-04-26T06:42:21.839Z,88194.00
2023-04-26T06:43:21.838Z,88194.00
2023-04-26T06:44:21.869Z,88196.00
2023-04-26T06:45:21.874Z,88196.00
2023-04-26T06:46:21.965Z,88194.00
2023-04-26T06:47:21.935Z,88196.00
2023-04-26T06:48:21.949Z,88194.00
2023-04-26T06:49:21.957Z,88192.00
2023-04-26T06:50:21.986Z,88192.00
2023-04-26T06:51:21.990Z,88196.00
2023-04-26T06:52:22.025Z,88196.00
2023-04-26T06:53:23.347Z,88192.00
2023-04-26T06:54:22.028Z,88196.00
2023-04-26T06:55:22.094Z,88194.00
2023-04-26T06:56:22.165Z,88194.00
2023-04-26T06:57:22.239Z,88196.00
2023-04-26T06:58:22.350Z,88194.00
2023-04-26T06:59:22.400Z,88196.00
2023-04-26T07:00:22.492Z,88196.00
2023-04-26T07:01:22.580Z,88194.00
2023-04-26T07:02:22.887Z,88196.00
2023-04-26T07:03:22.736Z,88196.00
2023-04-26T07:04:23.018Z,88194.00
2023-04-26T07:05:22.846Z,88192.00
2023-04-26T07:06:22.906Z,88192.00
2023-04-26T07:07:22.841Z,88192.00
2023-04-26T07:08:22.697Z,88192.00
2023-04-26T07:09:22.728Z,88190.00
2023-04-26T07:10:22.728Z,88188.00
2023-04-26T07:11:24.663Z,88190.00
2023-04-26T07:12:23.017Z,88188.00
2023-04-26T07:13:22.835Z,88190.00
2023-04-26T07:14:22.837Z,88194.00
2023-04-26T07:15:22.857Z,88192.00
2023-04-26T07:16:22.931Z,88194.00
2023-04-26T07:17:22.879Z,88192.00
2023-04-26T07:18:22.882Z,88192.00
2023-04-26T07:19:22.888Z,88190.00
2023-04-26T07:20:22.923Z,88192.00
2023-04-26T07:21:22.975Z,88190.00
2023-04-26T07:22:22.929Z,88190.00
2023-04-26T07:23:22.922Z,88186.00
2023-04-26T07:24:22.943Z,88186.00
2023-04-26T07:25:22.935Z,88184.00
2023-04-26T07:26:22.969Z,88184.00
2023-04-26T07:27:22.961Z,88186.00
2023-04-26T07:28:22.976Z,88184.00
2023-04-26T07:29:23.000Z,88183.00
2023-04-26T07:30:23.004Z,88183.00
2023-04-26T07:31:23.007Z,88186.00
2023-04-26T07:32:23.104Z,88183.00
2023-04-26T07:33:23.198Z,88184.00
2023-04-26T07:34:23.035Z,88186.00
2023-04-26T07:35:23.044Z,88186.00
2023-04-26T07:36:24.550Z,88184.00
2023-04-26T07:37:23.063Z,88184.00
2023-04-26T07:38:23.086Z,88184.00
2023-04-26T07:39:23.108Z,88181.00
2023-04-26T07:40:23.194Z,88183.00
2023-04-26T07:41:23.298Z,88186.00
2023-04-26T07:42:23.371Z,88184.00
2023-04-26T07:43:23.400Z,88184.00
2023-04-26T07:44:23.506Z,88184.00
2023-04-26T07:45:23.584Z,88184.00
2023-04-26T07:46:23.682Z,88184.00
2023-04-26T07:47:23.673Z,88183.00
2023-04-26T07:48:23.716Z,88183.00
2023-04-26T07:49:23.746Z,88184.00
2023-04-26T07:50:23.793Z,88184.00
2023-04-26T07:51:23.834Z,88184.00
2023-04-26T07:52:23.864Z,88183.00
2023-04-26T07:53:23.895Z,88184.00
2023-04-26T07:54:23.961Z,88181.00
2023-04-26T07:55:23.997Z,88184.00
2023-04-26T07:56:24.075Z,88184.00
2023-04-26T07:57:24.102Z,88181.00
2023-04-26T07:58:24.123Z,88184.00
2023-04-26T07:59:24.181Z,88184.00
2023-04-26T08:00:24.377Z,88188.00
2023-04-26T08:01:24.206Z,88188.00
2023-04-26T08:02:36.709Z,88190.00
2023-04-26T08:03:25.424Z,88188.00
2023-04-26T08:04:24.408Z,88188.00
2023-04-26T08:05:24.418Z,88186.00
2023-04-26T08:06:24.414Z,88188.00
2023-04-26T08:07:24.295Z,88188.00
2023-04-26T08:08:24.287Z,88188.00
2023-04-26T08:09:24.295Z,88190.00
2023-04-26T08:10:24.401Z,88194.00
2023-04-26T08:11:24.361Z,88194.00
2023-04-26T08:12:24.321Z,88192.00
2023-04-26T08:13:26.304Z,88194.00
2023-04-26T08:14:24.338Z,88192.00
2023-04-26T08:15:24.350Z,88192.00
2023-04-26T08:16:24.416Z,88192.00
2023-04-26T08:17:24.442Z,88190.00
2023-04-26T08:18:24.380Z,88190.00
2023-04-26T08:19:24.383Z,88188.00
2023-04-26T08:20:24.507Z,88188.00
2023-04-26T08:21:24.408Z,88188.00
2023-04-26T08:22:24.434Z,88184.00
2023-04-26T08:23:24.417Z,88184.00
2023-04-26T08:24:24.430Z,88186.00
2023-04-26T08:25:24.451Z,88188.00
2023-04-26T08:26:24.461Z,88188.00
2023-04-26T08:27:24.460Z,88188.00
2023-04-26T08:28:24.464Z,88190.00
2023-04-26T08:29:24.460Z,88188.00
2023-04-26T08:30:24.521Z,88188.00
2023-04-26T08:31:24.530Z,88183.00
2023-04-26T08:32:24.720Z,88181.00
2023-04-26T08:33:24.477Z,88179.00
2023-04-26T08:34:24.478Z,88181.00
2023-04-26T08:35:24.491Z,88181.00
2023-04-26T08:36:24.506Z,88181.00
2023-04-26T08:37:24.507Z,88183.00
2023-04-26T08:38:24.507Z,88181.00
2023-04-26T08:39:24.511Z,88183.00
2023-04-26T08:40:24.559Z,88181.00
2023-04-26T08:41:24.557Z,88183.00
2023-04-26T08:42:24.561Z,88183.00
2023-04-26T08:43:24.560Z,88179.00
2023-04-26T08:44:24.585Z,88183.00
2023-04-26T08:45:24.589Z,88184.00
2023-04-26T08:46:24.683Z,88186.00
2023-04-26T08:47:24.608Z,88181.00
2023-04-26T08:48:24.667Z,88179.00
2023-04-26T08:49:24.614Z,88183.00
2023-04-26T08:50:24.618Z,88179.00
2023-04-26T08:51:24.630Z,88184.00
2023-04-26T08:52:24.697Z,88181.00
2023-04-26T08:53:24.746Z,88181.00
2023-04-26T08:54:24.749Z,88184.00
2023-04-26T08:55:24.751Z,88179.00
2023-04-26T08:56:24.780Z,88173.00
2023-04-26T08:57:24.795Z,88175.00
2023-04-26T08:58:24.785Z,88169.00
2023-04-26T08:59:24.790Z,88173.00
2023-04-26T09:00:24.787Z,88177.00
2023-04-26T09:01:24.850Z,88173.00
2023-04-26T09:02:25.113Z,88171.00
2023-04-26T09:03:24.936Z,88171.00
2023-04-26T09:04:25.369Z,88167.00
2023-04-26T09:06:24.835Z,88167.00
2023-04-26T09:07:24.836Z,88171.00
2023-04-26T09:08:24.840Z,88167.00
2023-04-26T09:09:24.846Z,88169.00
2023-04-26T09:10:24.840Z,88163.00
2023-04-26T09:11:24.854Z,88165.00
2023-04-26T09:12:24.853Z,88163.00
2023-04-26T09:13:24.851Z,88163.00
2023-04-26T09:14:24.852Z,88163.00
2023-04-26T09:15:24.870Z,88167.00
2023-04-26T09:16:24.952Z,88167.00
2023-04-26T09:17:24.963Z,88165.00
2023-04-26T09:18:25.003Z,88163.00
2023-04-26T09:19:25.061Z,88161.00
2023-04-26T09:20:25.308Z,88159.00
2023-04-26T09:21:25.195Z,88155.00
2023-04-26T09:22:25.233Z,88151.00
2023-04-26T09:23:25.271Z,88151.00
2023-04-26T09:24:25.283Z,88151.00
2023-04-26T09:25:25.352Z,88151.00
2023-04-26T09:26:25.417Z,88151.00
2023-04-26T09:27:25.478Z,88149.00
2023-04-26T09:28:25.554Z,88149.00
2023-04-26T09:29:25.617Z,88149.00
2023-04-26T09:30:25.669Z,88145.00
2023-04-26T09:31:25.749Z,88145.00
2023-04-26T09:32:25.836Z,88145.00
2023-04-26T09:33:25.934Z,88145.00
2023-04-26T09:34:25.940Z,88149.00
2023-04-26T09:35:26.046Z,88149.00
2023-04-26T09:36:26.076Z,88149.00
2023-04-26T09:37:26.142Z,88151.00
2023-04-26T09:38:26.189Z,88149.00
2023-04-26T09:39:26.151Z,88149.00
2023-04-26T09:40:26.165Z,88147.00
2023-04-26T09:41:26.173Z,88147.00
2023-04-26T09:42:26.203Z,88149.00
2023-04-26T09:43:26.172Z,88149.00
2023-04-26T09:44:26.161Z,88149.00
2023-04-26T09:45:26.168Z,88145.00
2023-04-26T09:46:26.281Z,88143.00
2023-04-26T09:47:26.207Z,88141.00
2023-04-26T09:48:26.321Z,88139.00
2023-04-26T09:49:26.166Z,88137.00
2023-04-26T09:50:26.169Z,88139.00
2023-04-26T09:51:26.168Z,88139.00
2023-04-26T09:52:26.189Z,88137.00
2023-04-26T09:53:26.145Z,88137.00
2023-04-26T09:54:26.151Z,88132.00
2023-04-26T09:55:34.880Z,88136.00
2023-04-26T09:56:27.167Z,88137.00
2023-04-26T09:57:26.154Z,88136.00
2023-04-26T09:58:26.155Z,88137.00
2023-04-26T09:59:26.146Z,88136.00
2023-04-26T10:00:26.150Z,88134.00
2023-04-26T10:01:26.196Z,88130.00
2023-04-26T10:02:26.348Z,88132.00
2023-04-26T10:03:26.261Z,88130.00
2023-04-26T10:04:26.175Z,88130.00
2023-04-26T10:05:26.157Z,88128.00
2023-04-26T10:06:26.160Z,88130.00
2023-04-26T10:07:26.173Z,88126.00
2023-04-26T10:08:26.173Z,88124.00
2023-04-26T10:09:26.187Z,88122.00
2023-04-26T10:10:26.173Z,88124.00
2023-04-26T10:11:26.195Z,88118.00
2023-04-26T10:12:26.190Z,88120.00
2023-04-26T10:13:26.205Z,88118.00
2023-04-26T10:14:26.205Z,88114.00
2023-04-26T10:15:26.203Z,88116.00
2023-04-26T10:16:26.305Z,88110.00
2023-04-26T10:17:26.275Z,88112.00
2023-04-26T10:18:26.201Z,88112.00
2023-04-26T10:19:26.196Z,88112.00
2023-04-26T10:20:26.209Z,88114.00
2023-04-26T10:21:26.195Z,88116.00
2023-04-26T10:22:26.184Z,88118.00
2023-04-26T10:23:26.187Z,88118.00
2023-04-26T10:24:26.346Z,88122.00
2023-04-26T10:25:26.186Z,88122.00
2023-04-26T10:26:26.193Z,88118.00
2023-04-26T10:27:26.195Z,88120.00
2023-04-26T10:28:26.184Z,88118.00
2023-04-26T10:29:26.330Z,88114.00
2023-04-26T10:30:26.208Z,88112.00
2023-04-26T10:31:26.219Z,88114.00
2023-04-26T10:32:26.200Z,88116.00
2023-04-26T10:33:26.201Z,88118.00
2023-04-26T10:34:26.172Z,88118.00
2023-04-26T10:35:26.202Z,88114.00
2023-04-26T10:36:26.163Z,88112.00
2023-04-26T10:37:26.163Z,88108.00
2023-04-26T10:38:26.162Z,88108.00
2023-04-26T10:39:26.157Z,88108.00
2023-04-26T10:40:26.415Z,88106.00
2023-04-26T10:41:26.299Z,88108.00
2023-04-26T10:42:26.853Z,88108.00
2023-04-26T10:43:26.408Z,88108.00
2023-04-26T10:44:26.463Z,88108.00
2023-04-26T10:45:26.545Z,88102.00
2023-04-26T10:46:26.647Z,88102.00
2023-04-26T10:47:26.735Z,88098.00
2023-04-26T10:48:26.746Z,88096.00
2023-04-26T10:49:26.874Z,88096.00
2023-04-26T10:50:26.885Z,88096.00
2023-04-26T10:51:26.952Z,88098.00
2023-04-26T10:52:26.932Z,88094.00
2023-04-26T10:53:26.932Z,88094.00
2023-04-26T10:54:26.934Z,88094.00
2023-04-26T10:55:26.931Z,88088.00
2023-04-26T10:56:26.932Z,88090.00
2023-04-26T10:57:26.930Z,88090.00
2023-04-26T10:58:26.919Z,88088.00
2023-04-26T11:00:29.093Z,88084.00
2023-04-26T11:01:26.936Z,88086.00
2023-04-26T11:02:27.042Z,88086.00
2023-04-26T11:03:27.096Z,88090.00
2023-04-26T11:04:27.007Z,88086.00
2023-04-26T11:05:26.921Z,88086.00
2023-04-26T11:06:26.982Z,88082.00
2023-04-26T11:07:26.919Z,88079.00
2023-04-26T11:08:26.948Z,88082.00
2023-04-26T11:09:26.951Z,88077.00
2023-04-26T11:10:26.959Z,88075.00
2023-04-26T11:11:27.028Z,88075.00
2023-04-26T11:12:26.960Z,88075.00
2023-04-26T11:13:27.038Z,88073.00
2023-04-26T11:14:26.964Z,88071.00
2023-04-26T11:15:26.972Z,88071.00
2023-04-26T11:16:26.994Z,88069.00
2023-04-26T11:17:27.016Z,88073.00
2023-04-26T11:18:26.959Z,88071.00
2023-04-26T11:19:26.960Z,88067.00
2023-04-26T11:20:26.959Z,88065.00
2023-04-26T11:21:27.019Z,88067.00
2023-04-26T11:22:26.981Z,88063.00
2023-04-26T11:23:26.980Z,88063.00
2023-04-26T11:24:26.992Z,88065.00
2023-04-26T11:25:26.991Z,88065.00
2023-04-26T11:26:27.001Z,88065.00
2023-04-26T11:27:27.027Z,88063.00
2023-04-26T11:28:27.010Z,88063.00
2023-04-26T11:29:26.994Z,88061.00
2023-04-26T11:30:27.004Z,88057.00
2023-04-26T11:31:27.030Z,88051.00
2023-04-26T11:32:27.075Z,88047.00
2023-04-26T11:33:26.993Z,88045.00
2023-04-26T11:34:26.997Z,88043.00
2023-04-26T11:35:26.997Z,88043.00
2023-04-26T11:36:27.002Z,88039.00
2023-04-26T11:37:27.006Z,88041.00
2023-04-26T11:38:27.011Z,88041.00
2023-04-26T11:39:26.996Z,88041.00
2023-04-26T11:40:27.007Z,88039.00
2023-04-26T11:41:27.089Z,88039.00
2023-04-26T11:42:27.135Z,88041.00
2023-04-26T11:43:27.238Z,88041.00
2023-04-26T11:44:27.257Z,88041.00
2023-04-26T11:45:27.354Z,88045.00
2023-04-26T11:46:27.340Z,88043.00